Time;durP1;ratioP1;P1;durP2;ratioP2;P2;SDS_P1;SDS_P2;PMS_P1;PMS_P2;Temp;Humidity;BMP_temperature;BMP_pressure;BME280_temperature;BME280_humidity;BME280_pressure;Samples;Min_cycle;Max_cycle;Signal;HPM_P1;HPM_P2
2022/03/29 06:08:32;;;;;;;;;;;9.90;89.20;;;;;;5053109;27;2003360;-89
2022/03/29 06:10:58;;;;;;;;;;;10.30;87.20;;;;;;5126051;28;19946;-90
2022/03/29 06:13:25;;;;;;;;;;;10.40;87.10;;;;;;5126995;28;19920;-90
2022/03/29 06:15:50;;;;;;;;;;;10.50;86.70;;;;;;5130035;28;19915;-91
2022/03/29 06:18:16;;;;;;;;;;;10.60;86.50;;;;;;5124658;28;20274;-90
2022/03/29 06:20:41;;;;;;;;;;;10.70;86.20;;;;;;5108674;28;19954;-90
2022/03/29 06:23:07;;;;;;;;;;;10.80;85.70;;;;;;5126490;28;19957;-89
2022/03/29 06:25:34;;;;;;;;;;;10.80;85.20;;;;;;5122887;28;19974;-90
2022/03/29 06:28:00;;;;;;;;;;;10.80;85.00;;;;;;5125470;28;19915;-89
2022/03/29 06:30:26;;;;;;;;;;;10.80;85.00;;;;;;5124652;28;19998;-89
2022/03/29 06:32:52;;;;;;;;;;;10.80;84.70;;;;;;5123126;28;19999;-89
2022/03/29 06:35:24;;;;;;;;;;;10.80;84.80;;;;;;5125903;28;19911;-90
2022/03/29 07:00:18;;;;;;;;;;;10.90;84.60;;;;;;5106469;27;19927;-88
2022/03/29 07:06:31;;;;;;;;;;;11.50;82.30;;;;;;5038585;27;3028747;-89
2022/03/29 07:25:51;;;;;;;;;;;11.70;81.40;;;;;;5096622;27;2021607;-88
2022/03/29 07:29:10;;;;;;;;;;;11.80;80.70;;;;;;5088949;27;19928;-88
2022/03/29 07:31:37;;;;;;;;;;;12.00;79.40;;;;;;5082613;28;19923;-88
2022/03/29 07:34:03;;;;;;;;;;;12.20;78.40;;;;;;5079818;28;19912;-88
2022/03/29 07:40:44;;;;;;;;;;;12.40;77.90;;;;;;5067028;27;2012574;-88
2022/03/29 07:43:22;;;;;;;;;;;12.60;76.50;;;;;;5099402;27;19916;-89
2022/03/29 07:45:47;;;;;;;;;;;12.80;75.50;;;;;;5079899;28;20482;-89
2022/03/29 07:53:51;;;;;;;;;;;12.90;75.20;;;;;;5102435;27;19923;-88
2022/03/29 08:02:10;;;;;;;;;;;12.70;74.30;;;;;;5108048;27;19931;-89
2022/03/29 08:04:35;;;;;;;;;;;12.80;74.60;;;;;;5092260;28;19913;-89
2022/03/29 08:07:01;;;;;;;;;;;12.80;74.30;;;;;;5082141;28;19970;-89
2022/03/29 08:09:27;;;;;;;;;;;12.90;73.60;;;;;;5087556;28;19912;-88
2022/03/29 08:11:52;;;;;;;;;;;12.90;73.20;;;;;;5083486;28;20011;-88
2022/03/29 08:14:19;;;;;;;;;;;13.00;72.60;;;;;;5092349;28;19912;-89
2022/03/29 08:16:45;;;;;;;;;;;13.10;72.10;;;;;;5086028;28;19919;-89
2022/03/29 08:19:10;;;;;;;;;;;13.30;71.20;;;;;;5086974;28;20378;-89
2022/03/29 08:28:43;;;;;;;;;;;13.40;70.70;;;;;;5107752;27;19924;-89
2022/03/29 08:31:09;;;;;;;;;;;13.40;70.40;;;;;;5091787;28;19918;-89
2022/03/29 08:33:34;;;;;;;;;;;13.40;70.30;;;;;;5089883;28;19913;-88
2022/03/29 08:39:06;;;;;;;;;;;13.40;69.50;;;;;;5092694;27;20374;-89
2022/03/29 08:41:39;;;;;;;;;;;13.70;69.60;;;;;;5088472;28;19968;-88
2022/03/29 08:45:15;;;;;;;;;;;13.90;68.90;;;;;;5088031;27;19920;-89
2022/03/29 08:49:40;;;;;;;;;;;14.10;67.60;;;;;;5103124;27;20405;-89
2022/03/29 08:52:06;;;;;;;;;;;14.30;66.70;;;;;;5109788;28;19922;-89
2022/03/29 08:54:32;;;;;;;;;;;14.40;65.80;;;;;;5103106;28;19912;-89
2022/03/29 08:57:54;;;;;;;;;;;14.60;66.00;;;;;;5108027;27;19916;-89
2022/03/29 09:14:30;;;;;;;;;;;14.70;64.90;;;;;;5125314;27;19928;-89
2022/03/29 09:16:55;;;;;;;;;;;14.60;65.40;;;;;;5072229;28;19919;-89
2022/03/29 09:19:24;;;;;;;;;;;14.80;64.80;;;;;;5070458;28;19920;-89
2022/03/29 09:21:51;;;;;;;;;;;14.80;64.20;;;;;;5067149;28;19913;-88
2022/03/29 09:26:27;;;;;;;;;;;14.70;63.40;;;;;;5110600;27;20382;-89
2022/03/29 09:28:52;;;;;;;;;;;14.40;65.00;;;;;;5101913;28;19920;-89
2022/03/29 09:33:41;;;;;;;;;;;14.70;63.90;;;;;;5106385;27;19916;-89
2022/03/29 09:36:08;;;;;;;;;;;15.30;62.90;;;;;;5109473;28;19912;-89
2022/03/29 09:43:32;;;;;;;;;;;15.40;63.10;;;;;;5107799;27;19920;-89
2022/03/29 09:52:10;;;;;;;;;;;15.20;62.10;;;;;;5103207;27;19924;-88
2022/03/29 09:56:00;;;;;;;;;;;15.40;61.90;;;;;;5086019;27;20371;-88
2022/03/29 10:03:48;;;;;;;;;;;15.60;60.40;;;;;;5076008;27;2013626;-88
2022/03/29 10:40:34;;;;;;;;;;;15.80;61.10;;;;;;5111021;27;20304;-89
2022/03/29 10:43:20;;;;;;;;;;;16.80;57.30;;;;;;5110989;28;19935;-89
2022/03/29 10:45:45;;;;;;;;;;;17.10;55.70;;;;;;5110843;27;19914;-89
2022/03/29 10:48:12;;;;;;;;;;;17.40;55.00;;;;;;5110825;28;19998;-89
2022/03/29 10:50:47;;;;;;;;;;;17.60;54.00;;;;;;5110794;28;19914;-89
2022/03/29 10:53:32;;;;;;;;;;;17.80;54.10;;;;;;5111086;28;20197;-89
2022/03/29 10:56:10;;;;;;;;;;;17.80;54.30;;;;;;5110638;28;20370;-89
2022/03/29 11:02:27;;;;;;;;;;;17.60;53.80;;;;;;5111003;27;20397;-89
2022/03/29 11:07:05;;;;;;;;;;;17.30;55.80;;;;;;5111029;27;20378;-88
2022/03/29 11:09:31;;;;;;;;;;;17.60;53.70;;;;;;5110850;28;19955;-89
2022/03/29 11:11:57;;;;;;;;;;;17.70;52.80;;;;;;5110879;28;19931;-89
2022/03/29 11:16:25;;;;;;;;;;;17.80;56.60;;;;;;5110962;27;19912;-89
2022/03/29 11:20:56;;;;;;;;;;;18.20;54.60;;;;;;5104435;27;19916;-89
2022/03/29 11:23:31;;;;;;;;;;;18.70;53.00;;;;;;5101286;28;19942;-89
2022/03/29 11:25:56;;;;;;;;;;;18.70;53.40;;;;;;5105376;28;20366;-89
2022/03/29 11:28:22;;;;;;;;;;;18.60;53.70;;;;;;5098302;28;19926;-89
2022/03/29 11:30:52;;;;;;;;;;;18.70;52.80;;;;;;5088552;28;19956;-88
2022/03/29 11:33:37;;;;;;;;;;;18.80;52.20;;;;;;5100569;27;20285;-89
2022/03/29 11:36:06;;;;;;;;;;;18.60;50.70;;;;;;5091637;28;19913;-89
2022/03/29 11:38:33;;;;;;;;;;;18.40;50.80;;;;;;5086265;28;19916;-89
2022/03/29 11:41:02;;;;;;;;;;;18.40;51.90;;;;;;5096968;28;19913;-89
2022/03/29 11:45:53;;;;;;;;;;;18.40;54.10;;;;;;5108756;27;20024;-89
2022/03/29 11:48:20;;;;;;;;;;;18.90;50.40;;;;;;5112574;28;20290;-89
2022/03/29 11:50:48;;;;;;;;;;;19.10;50.60;;;;;;5110072;27;19924;-89
2022/03/29 11:53:15;;;;;;;;;;;19.20;50.90;;;;;;5107431;28;20277;-89
2022/03/29 11:55:41;;;;;;;;;;;19.30;51.30;;;;;;5104766;28;19912;-89
2022/03/29 11:58:22;;;;;;;;;;;19.60;50.10;;;;;;5101800;28;19958;-89
2022/03/29 12:00:48;;;;;;;;;;;19.70;49.90;;;;;;5103585;28;19918;-90
2022/03/29 12:03:25;;;;;;;;;;;20.20;48.40;;;;;;5109578;28;20006;-89
2022/03/29 12:06:00;;;;;;;;;;;20.60;49.50;;;;;;5099218;28;19998;-89
2022/03/29 12:08:41;;;;;;;;;;;20.40;47.60;;;;;;5102263;28;19912;-89
2022/03/29 12:12:48;;;;;;;;;;;20.30;48.60;;;;;;5088036;27;19916;-88
2022/03/29 12:22:27;;;;;;;;;;;20.30;48.40;;;;;;5102323;27;19938;-89
2022/03/29 12:24:55;;;;;;;;;;;20.50;45.40;;;;;;5106458;28;20326;-89
2022/03/29 12:27:21;;;;;;;;;;;20.70;45.80;;;;;;5097948;28;20004;-89
2022/03/29 12:29:47;;;;;;;;;;;20.90;46.00;;;;;;5106324;28;20015;-89
2022/03/29 12:32:13;;;;;;;;;;;21.30;46.40;;;;;;5099470;28;19965;-89
2022/03/29 12:34:39;;;;;;;;;;;21.80;45.00;;;;;;5106464;28;19920;-89
2022/03/29 12:37:09;;;;;;;;;;;22.40;44.60;;;;;;5101619;28;19920;-89
2022/03/29 12:39:38;;;;;;;;;;;23.00;42.60;;;;;;5099418;28;19912;-89
2022/03/29 12:42:04;;;;;;;;;;;23.40;41.30;;;;;;5109228;28;19963;-89
2022/03/29 12:44:36;;;;;;;;;;;23.90;38.40;;;;;;5107623;28;20369;-90
2022/03/29 12:47:02;;;;;;;;;;;23.50;39.80;;;;;;5106887;28;19912;-89
2022/03/29 12:49:27;;;;;;;;;;;22.60;40.70;;;;;;5106267;28;19916;-89
2022/03/29 12:51:54;;;;;;;;;;;21.80;41.90;;;;;;5101076;28;19935;-89
2022/03/29 12:54:20;;;;;;;;;;;22.00;43.30;;;;;;5104501;28;19956;-89
2022/03/29 12:56:47;;;;;;;;;;;22.00;42.30;;;;;;5103161;28;20301;-89
2022/03/29 12:59:32;;;;;;;;;;;21.60;41.70;;;;;;5100907;28;19912;-88
2022/03/29 13:02:12;;;;;;;;;;;20.60;43.70;;;;;;5102209;28;19920;-89
2022/03/29 13:04:39;;;;;;;;;;;20.20;45.50;;;;;;5100704;28;20415;-89
2022/03/29 13:07:31;;;;;;;;;;;20.30;45.50;;;;;;5108198;27;20374;-90
2022/03/29 13:09:58;;;;;;;;;;;20.70;45.30;;;;;;5087336;28;19934;-89
2022/03/29 13:12:24;;;;;;;;;;;21.20;45.90;;;;;;5080099;28;19913;-89
2022/03/29 13:14:49;;;;;;;;;;;21.50;44.50;;;;;;5086196;28;19926;-89
2022/03/29 13:17:15;;;;;;;;;;;21.30;43.30;;;;;;5085110;28;20462;-89
2022/03/29 13:19:54;;;;;;;;;;;21.10;44.70;;;;;;5082720;28;20424;-89
2022/03/29 13:22:20;;;;;;;;;;;21.10;43.90;;;;;;5083803;28;20362;-89
2022/03/29 13:24:46;;;;;;;;;;;21.60;44.40;;;;;;5074289;28;19999;-89
2022/03/29 13:27:12;;;;;;;;;;;22.20;43.40;;;;;;5095460;28;19968;-89
2022/03/29 13:29:37;;;;;;;;;;;22.90;42.30;;;;;;5080918;28;19959;-89
2022/03/29 13:32:05;;;;;;;;;;;23.30;40.40;;;;;;5085319;28;19912;-89
2022/03/29 13:34:31;;;;;;;;;;;23.80;40.50;;;;;;5072247;28;19913;-89
2022/03/29 13:36:57;;;;;;;;;;;24.30;37.60;;;;;;5073553;28;19912;-89
2022/03/29 13:39:23;;;;;;;;;;;24.70;38.10;;;;;;5079726;28;20015;-90
2022/03/29 13:41:48;;;;;;;;;;;24.30;38.40;;;;;;5078927;28;19916;-89
2022/03/29 13:44:14;;;;;;;;;;;23.80;38.40;;;;;;5077037;28;19931;-89
2022/03/29 13:46:39;;;;;;;;;;;22.80;38.60;;;;;;5080998;28;19970;-89
2022/03/29 13:52:34;;;;;;;;;;;22.20;40.10;;;;;;5115143;27;19923;-89
2022/03/29 13:54:59;;;;;;;;;;;21.70;42.60;;;;;;5092623;28;19963;-89
2022/03/29 13:57:25;;;;;;;;;;;21.80;41.80;;;;;;5074574;28;19960;-89
2022/03/29 13:59:50;;;;;;;;;;;21.80;41.30;;;;;;5084044;28;19912;-89
2022/03/29 14:02:16;;;;;;;;;;;22.20;41.30;;;;;;5080451;28;19916;-89
2022/03/29 14:04:41;;;;;;;;;;;23.10;39.20;;;;;;5083833;28;19922;-89
2022/03/29 14:07:07;;;;;;;;;;;23.30;37.70;;;;;;5085901;28;19912;-89
2022/03/29 14:09:32;;;;;;;;;;;23.30;37.30;;;;;;5083399;28;19928;-89
2022/03/29 14:11:59;;;;;;;;;;;23.60;35.50;;;;;;5088092;28;19921;-89
2022/03/29 14:14:25;;;;;;;;;;;24.10;35.90;;;;;;5081273;28;19956;-89
2022/03/29 14:16:50;;;;;;;;;;;25.00;35.30;;;;;;5081045;28;19956;-89
2022/03/29 14:19:16;;;;;;;;;;;25.20;36.10;;;;;;5088815;28;20169;-89
2022/03/29 14:21:42;;;;;;;;;;;25.80;35.20;;;;;;5085069;28;19913;-89
2022/03/29 14:24:07;;;;;;;;;;;26.50;33.60;;;;;;5092303;28;19912;-89
2022/03/29 14:26:33;;;;;;;;;;;26.90;32.20;;;;;;5080812;28;19956;-89
2022/03/29 14:29:01;;;;;;;;;;;26.60;31.10;;;;;;5085205;28;20401;-89
2022/03/29 14:31:28;;;;;;;;;;;26.00;31.10;;;;;;5088925;28;20445;-89
2022/03/29 14:33:56;;;;;;;;;;;25.20;32.90;;;;;;5083581;28;19916;-88
2022/03/29 14:36:22;;;;;;;;;;;24.60;34.60;;;;;;5090285;28;19956;-88
2022/03/29 14:38:47;;;;;;;;;;;24.50;34.60;;;;;;5072567;28;19999;-89
2022/03/29 14:41:13;;;;;;;;;;;25.00;33.70;;;;;;5090361;28;19981;-89
2022/03/29 14:43:38;;;;;;;;;;;25.50;32.70;;;;;;5076630;28;19920;-89
2022/03/29 14:46:04;;;;;;;;;;;26.30;30.90;;;;;;5087455;28;20273;-89
2022/03/29 14:48:30;;;;;;;;;;;26.80;30.30;;;;;;5082306;28;20259;-89
2022/03/29 14:50:57;;;;;;;;;;;27.20;29.20;;;;;;5084206;28;19923;-89
2022/03/29 14:53:23;;;;;;;;;;;27.00;29.30;;;;;;5079055;28;19916;-89
2022/03/29 14:55:50;;;;;;;;;;;27.20;29.30;;;;;;5086161;28;20005;-89
2022/03/29 14:58:18;;;;;;;;;;;27.30;28.90;;;;;;5091703;28;19915;-89
2022/03/29 15:00:46;;;;;;;;;;;27.30;29.10;;;;;;5082383;28;19913;-89
2022/03/29 15:03:12;;;;;;;;;;;27.00;30.70;;;;;;5071117;28;20431;-89
2022/03/29 15:05:37;;;;;;;;;;;25.70;33.90;;;;;;5075876;28;19912;-89
2022/03/29 15:08:03;;;;;;;;;;;25.20;34.60;;;;;;5075403;28;19919;-89
2022/03/29 15:10:29;;;;;;;;;;;25.00;34.20;;;;;;5084420;28;19920;-89
2022/03/29 15:12:54;;;;;;;;;;;25.10;34.20;;;;;;5078584;28;20336;-89
2022/03/29 15:15:20;;;;;;;;;;;25.10;35.40;;;;;;5083129;28;19962;-89
2022/03/29 15:17:46;;;;;;;;;;;25.10;34.60;;;;;;5063754;28;19912;-89
2022/03/29 15:20:11;;;;;;;;;;;25.20;34.30;;;;;;5073724;28;19915;-89
2022/03/29 15:22:37;;;;;;;;;;;24.90;36.30;;;;;;5061795;28;19920;-89
2022/03/29 15:25:03;;;;;;;;;;;24.40;37.20;;;;;;5074573;28;20004;-89
2022/03/29 15:27:30;;;;;;;;;;;24.20;37.30;;;;;;5070533;28;19913;-89
2022/03/29 15:29:55;;;;;;;;;;;24.10;36.70;;;;;;5072883;28;19970;-89
2022/03/29 15:32:23;;;;;;;;;;;24.20;36.30;;;;;;5066818;28;19916;-89
2022/03/29 15:34:49;;;;;;;;;;;24.30;35.90;;;;;;5074296;28;19958;-89
2022/03/29 15:37:15;;;;;;;;;;;24.70;34.60;;;;;;5084245;28;19920;-89
2022/03/29 15:39:41;;;;;;;;;;;25.30;33.40;;;;;;5072997;28;19935;-89
2022/03/29 15:42:08;;;;;;;;;;;25.70;32.70;;;;;;5069052;28;19995;-89
2022/03/29 15:44:34;;;;;;;;;;;25.80;33.00;;;;;;5070415;28;19917;-89
2022/03/29 15:47:00;;;;;;;;;;;26.00;33.10;;;;;;5070014;28;19915;-89
2022/03/29 15:49:26;;;;;;;;;;;26.10;32.80;;;;;;5069458;28;19913;-89
2022/03/29 15:51:51;;;;;;;;;;;26.00;33.20;;;;;;5073740;28;20378;-89
2022/03/29 15:54:17;;;;;;;;;;;25.50;34.90;;;;;;5073633;28;19913;-89
2022/03/29 15:56:42;;;;;;;;;;;25.80;33.60;;;;;;5071263;28;19913;-89
2022/03/29 15:59:08;;;;;;;;;;;25.90;32.80;;;;;;5069769;28;19919;-89
2022/03/29 16:01:33;;;;;;;;;;;25.50;32.90;;;;;;5065935;28;19916;-89
2022/03/29 16:03:59;;;;;;;;;;;24.50;34.00;;;;;;5066626;28;19999;-89
2022/03/29 16:06:28;;;;;;;;;;;23.90;35.40;;;;;;5070095;28;20319;-88
2022/03/29 16:08:53;;;;;;;;;;;23.30;37.30;;;;;;5063741;28;19923;-89
2022/03/29 16:11:19;;;;;;;;;;;22.90;37.50;;;;;;5068083;28;20010;-89
2022/03/29 16:13:46;;;;;;;;;;;23.30;37.30;;;;;;5063369;28;19913;-89
2022/03/29 16:16:12;;;;;;;;;;;23.30;37.90;;;;;;5063296;28;19935;-89
2022/03/29 16:18:38;;;;;;;;;;;23.20;38.60;;;;;;5067129;28;20330;-89
2022/03/29 16:21:04;;;;;;;;;;;22.70;38.80;;;;;;5074031;28;19951;-89
2022/03/29 16:23:31;;;;;;;;;;;22.60;40.00;;;;;;5066461;28;19920;-89
2022/03/29 16:25:57;;;;;;;;;;;22.60;41.00;;;;;;5072057;28;19999;-89
2022/03/29 16:28:22;;;;;;;;;;;22.50;41.10;;;;;;5071591;28;20011;-89
2022/03/29 16:30:48;;;;;;;;;;;22.30;41.80;;;;;;5067605;28;19917;-89
2022/03/29 16:33:13;;;;;;;;;;;22.30;42.20;;;;;;5067334;28;20392;-89
2022/03/29 16:35:40;;;;;;;;;;;22.00;42.30;;;;;;5067758;28;19912;-89
2022/03/29 16:38:05;;;;;;;;;;;21.70;42.70;;;;;;5078950;28;19912;-89
2022/03/29 16:40:35;;;;;;;;;;;21.40;43.40;;;;;;5074326;28;20000;-89
2022/03/29 16:43:04;;;;;;;;;;;21.20;43.40;;;;;;5059747;28;19917;-89
2022/03/29 16:45:30;;;;;;;;;;;21.00;44.20;;;;;;5062184;28;19995;-89
2022/03/29 16:47:56;;;;;;;;;;;20.80;45.00;;;;;;5061851;28;19995;-89
2022/03/29 16:50:23;;;;;;;;;;;20.70;45.70;;;;;;5058835;28;20370;-89
2022/03/29 16:52:49;;;;;;;;;;;20.10;46.30;;;;;;5065585;28;19935;-88
2022/03/29 16:55:14;;;;;;;;;;;19.50;47.70;;;;;;5080791;28;20358;-88
2022/03/29 16:57:40;;;;;;;;;;;19.00;49.00;;;;;;5075343;28;20324;-89
2022/03/29 17:00:09;;;;;;;;;;;18.50;50.50;;;;;;5054362;28;20247;-89
2022/03/29 17:02:35;;;;;;;;;;;18.30;51.30;;;;;;5056922;28;19944;-89
2022/03/29 17:05:01;;;;;;;;;;;18.10;52.00;;;;;;5062157;28;19964;-89
2022/03/29 17:07:26;;;;;;;;;;;17.90;52.50;;;;;;5057634;28;19912;-89
2022/03/29 17:09:53;;;;;;;;;;;17.80;52.90;;;;;;5060888;28;19991;-89
2022/03/29 17:12:19;;;;;;;;;;;17.60;53.30;;;;;;5062229;28;20275;-89
2022/03/29 17:14:45;;;;;;;;;;;17.40;54.20;;;;;;5060411;28;19921;-89
2022/03/29 17:17:10;;;;;;;;;;;17.30;54.60;;;;;;5071015;28;19989;-89
2022/03/29 17:19:36;;;;;;;;;;;17.30;55.60;;;;;;5051640;28;20292;-90
2022/03/29 17:22:02;;;;;;;;;;;17.20;56.90;;;;;;5067371;28;19912;-89
2022/03/29 17:24:27;;;;;;;;;;;17.00;58.20;;;;;;5071181;28;20326;-89
2022/03/29 17:26:53;;;;;;;;;;;16.80;59.90;;;;;;5073026;28;19908;-89
2022/03/29 17:29:18;;;;;;;;;;;16.30;61.70;;;;;;5073214;28;19914;-89
2022/03/29 17:31:44;;;;;;;;;;;16.20;63.20;;;;;;5073012;28;19916;-89
2022/03/29 17:34:10;;;;;;;;;;;16.10;63.80;;;;;;5073384;28;19908;-89
2022/03/29 17:36:36;;;;;;;;;;;16.10;64.10;;;;;;5073200;28;19909;-89
2022/03/29 17:39:03;;;;;;;;;;;15.90;65.20;;;;;;5073384;28;19908;-89
2022/03/29 17:41:28;;;;;;;;;;;15.80;65.80;;;;;;5072343;28;19919;-89
2022/03/29 17:43:54;;;;;;;;;;;15.70;66.50;;;;;;5073036;28;19909;-89
2022/03/29 17:46:21;;;;;;;;;;;15.50;67.20;;;;;;5073073;28;20317;-89
2022/03/29 17:48:49;;;;;;;;;;;15.50;67.50;;;;;;5072446;28;20324;-89
2022/03/29 17:51:14;;;;;;;;;;;15.50;67.50;;;;;;5072571;28;20374;-89
2022/03/29 17:53:40;;;;;;;;;;;15.50;68.20;;;;;;5072817;28;19915;-89
2022/03/29 17:56:07;;;;;;;;;;;15.30;68.60;;;;;;5072986;28;20417;-89
2022/03/29 17:58:33;;;;;;;;;;;15.30;69.00;;;;;;5073026;28;19916;-89
2022/03/29 18:01:16;;;;;;;;;;;15.20;69.00;;;;;;5111078;27;19912;-89
2022/03/29 18:03:41;;;;;;;;;;;15.20;69.30;;;;;;5110723;28;19919;-89
2022/03/29 18:06:07;;;;;;;;;;;15.10;69.50;;;;;;5110880;28;19915;-89
2022/03/29 18:08:33;;;;;;;;;;;15.10;69.60;;;;;;5110804;28;19999;-89
2022/03/29 18:10:58;;;;;;;;;;;15.10;69.90;;;;;;5093349;28;20027;-89
2022/03/29 18:13:24;;;;;;;;;;;14.90;70.50;;;;;;5090470;28;20282;-89
2022/03/29 18:15:50;;;;;;;;;;;14.90;70.80;;;;;;5090431;28;20328;-88
2022/03/29 18:18:16;;;;;;;;;;;14.80;71.40;;;;;;5090704;28;20429;-89
2022/03/29 18:20:41;;;;;;;;;;;14.70;71.80;;;;;;5090264;28;19916;-89
2022/03/29 18:25:03;;;;;;;;;;;14.60;72.00;;;;;;5111092;27;20392;-89
2022/03/29 18:27:29;;;;;;;;;;;14.50;72.60;;;;;;5111020;28;19940;-90
2022/03/29 18:29:55;;;;;;;;;;;14.40;72.80;;;;;;5111199;28;19943;-89
2022/03/29 18:32:21;;;;;;;;;;;14.40;73.00;;;;;;5110862;28;19908;-89
2022/03/29 18:34:46;;;;;;;;;;;14.40;72.80;;;;;;5110627;28;19931;-88
2022/03/29 18:37:12;;;;;;;;;;;14.10;73.70;;;;;;5110836;28;19908;-89
2022/03/29 18:39:39;;;;;;;;;;;14.00;74.10;;;;;;5110817;28;19911;-89
2022/03/29 18:42:05;;;;;;;;;;;13.90;74.60;;;;;;5110736;28;19915;-89
2022/03/29 18:44:31;;;;;;;;;;;13.80;75.00;;;;;;5110663;28;19919;-89
2022/03/29 18:46:56;;;;;;;;;;;13.60;75.40;;;;;;5110455;28;19912;-90
2022/03/29 18:49:22;;;;;;;;;;;13.60;75.50;;;;;;5110671;28;20011;-88
2022/03/29 18:51:47;;;;;;;;;;;13.50;75.60;;;;;;5110524;28;19908;-89
2022/03/29 18:54:14;;;;;;;;;;;13.50;75.70;;;;;;5110525;28;20385;-89
2022/03/29 18:56:41;;;;;;;;;;;13.30;75.60;;;;;;5110956;28;20057;-89
2022/03/29 18:59:07;;;;;;;;;;;13.30;75.60;;;;;;5110416;28;19908;-89
2022/03/29 19:01:33;;;;;;;;;;;13.20;75.70;;;;;;5110138;28;19961;-88
2022/03/29 19:03:59;;;;;;;;;;;13.20;76.50;;;;;;5110202;28;19912;-88
2022/03/29 19:06:24;;;;;;;;;;;13.10;77.00;;;;;;5110257;28;19915;-89
2022/03/29 19:08:50;;;;;;;;;;;13.00;77.60;;;;;;5110207;28;19908;-90
2022/03/29 19:11:17;;;;;;;;;;;12.90;78.00;;;;;;5110206;28;20353;-90
2022/03/29 19:13:42;;;;;;;;;;;12.90;78.30;;;;;;5110170;28;19908;-89
2022/03/29 19:16:09;;;;;;;;;;;12.90;78.40;;;;;;5110148;28;20411;-89
2022/03/29 19:18:35;;;;;;;;;;;12.80;78.60;;;;;;5110671;28;19958;-89
2022/03/29 19:21:00;;;;;;;;;;;12.70;78.70;;;;;;5110442;28;19912;-88
2022/03/29 19:23:27;;;;;;;;;;;12.70;78.70;;;;;;5109737;28;19920;-89
2022/03/29 19:25:54;;;;;;;;;;;12.70;78.60;;;;;;5109948;28;20409;-89
2022/03/29 19:28:21;;;;;;;;;;;12.60;78.60;;;;;;5109223;28;19912;-90
2022/03/29 19:30:47;;;;;;;;;;;12.50;79.20;;;;;;5109780;28;19939;-91
2022/03/29 19:33:13;;;;;;;;;;;12.40;78.80;;;;;;5109895;28;20408;-89
2022/03/29 19:35:40;;;;;;;;;;;12.40;79.20;;;;;;5100342;28;19933;-90
2022/03/29 19:38:06;;;;;;;;;;;12.40;79.20;;;;;;5096129;28;19912;-90
2022/03/29 19:40:32;;;;;;;;;;;12.40;80.00;;;;;;5094847;28;19913;-89
2022/03/29 19:43:16;;;;;;;;;;;12.40;79.80;;;;;;5096060;28;20358;-90
2022/03/29 19:45:42;;;;;;;;;;;12.40;79.90;;;;;;5096394;28;19908;-89
2022/03/29 19:48:08;;;;;;;;;;;12.50;79.70;;;;;;5096048;28;20366;-90
2022/03/29 19:50:33;;;;;;;;;;;12.50;79.40;;;;;;5095907;28;19919;-91
2022/03/29 19:53:00;;;;;;;;;;;12.40;79.40;;;;;;5096189;28;20376;-89
2022/03/29 19:55:26;;;;;;;;;;;12.40;79.60;;;;;;5094575;28;20004;-90
2022/03/29 19:57:56;;;;;;;;;;;12.40;80.00;;;;;;5093072;28;19960;-90
2022/03/29 20:00:22;;;;;;;;;;;12.40;80.20;;;;;;5075526;28;20378;-91
2022/03/29 20:02:48;;;;;;;;;;;12.40;80.40;;;;;;5075399;28;19915;-89
2022/03/29 20:05:13;;;;;;;;;;;12.30;80.50;;;;;;5075462;28;19924;-90
2022/03/29 20:07:40;;;;;;;;;;;12.30;81.30;;;;;;5075394;28;20312;-90
2022/03/29 20:10:07;;;;;;;;;;;12.30;81.50;;;;;;5075371;28;19908;-90
2022/03/29 20:12:32;;;;;;;;;;;12.20;81.70;;;;;;5075342;28;20096;-90
2022/03/29 20:14:58;;;;;;;;;;;12.20;81.80;;;;;;5075275;28;19913;-90
2022/03/29 20:17:24;;;;;;;;;;;12.20;81.50;;;;;;5075518;28;20007;-89
2022/03/29 20:19:51;;;;;;;;;;;12.10;80.90;;;;;;5075181;28;19919;-89
2022/03/29 20:22:16;;;;;;;;;;;12.00;80.70;;;;;;5075071;28;19958;-91
2022/03/29 20:24:42;;;;;;;;;;;11.90;80.80;;;;;;5073470;28;19920;-90
2022/03/29 20:27:08;;;;;;;;;;;11.80;80.80;;;;;;5075028;28;19917;-91
2022/03/29 20:29:34;;;;;;;;;;;11.80;81.50;;;;;;5075191;28;19908;-89
2022/03/29 20:31:59;;;;;;;;;;;11.80;81.80;;;;;;5074840;28;19908;-90
2022/03/29 20:34:25;;;;;;;;;;;11.80;81.70;;;;;;5074921;28;19909;-90
2022/03/29 20:36:51;;;;;;;;;;;11.70;81.70;;;;;;5074900;28;19951;-89
2022/03/29 20:39:17;;;;;;;;;;;11.60;82.30;;;;;;5074790;28;19993;-90
2022/03/29 20:41:43;;;;;;;;;;;11.50;82.70;;;;;;5074942;28;20003;-90
2022/03/29 20:44:09;;;;;;;;;;;11.50;83.00;;;;;;5074599;28;20015;-90
2022/03/29 20:46:35;;;;;;;;;;;11.40;83.40;;;;;;5073630;28;20274;-91
2022/03/29 20:49:00;;;;;;;;;;;11.50;83.70;;;;;;5074567;28;19909;-90
2022/03/29 20:51:30;;;;;;;;;;;11.50;83.80;;;;;;5074487;28;19923;-90
2022/03/29 20:54:00;;;;;;;;;;;11.40;83.80;;;;;;5074487;28;20371;-90
2022/03/29 20:56:28;;;;;;;;;;;11.40;83.70;;;;;;5073229;28;19908;-89
2022/03/29 20:58:55;;;;;;;;;;;11.40;83.70;;;;;;5086222;28;19912;-90
2022/03/29 21:01:21;;;;;;;;;;;11.40;84.00;;;;;;5094616;28;19919;-89
2022/03/29 21:03:46;;;;;;;;;;;11.30;84.40;;;;;;5094441;28;19958;-90
2022/03/29 21:06:12;;;;;;;;;;;11.40;84.80;;;;;;5094417;28;20387;-90
2022/03/29 21:08:38;;;;;;;;;;;11.40;84.90;;;;;;5094430;28;19912;-90
2022/03/29 21:11:04;;;;;;;;;;;11.40;85.00;;;;;;5094067;28;19912;-89
2022/03/29 21:13:32;;;;;;;;;;;11.40;84.90;;;;;;5093438;28;19919;-91
2022/03/29 21:15:57;;;;;;;;;;;11.40;84.90;;;;;;5074069;28;20094;-89
2022/03/29 21:18:23;;;;;;;;;;;11.30;84.90;;;;;;5074359;28;20025;-90
2022/03/29 21:20:49;;;;;;;;;;;11.20;85.30;;;;;;5073902;28;20287;-91
2022/03/29 21:23:15;;;;;;;;;;;11.30;85.90;;;;;;5073650;28;19916;-90
2022/03/29 21:25:40;;;;;;;;;;;11.40;85.70;;;;;;5090916;28;19908;-89
2022/03/29 21:28:06;;;;;;;;;;;11.40;85.50;;;;;;5094081;28;20289;-89
2022/03/29 21:30:32;;;;;;;;;;;11.40;85.30;;;;;;5094007;28;20332;-89
2022/03/29 21:32:58;;;;;;;;;;;11.40;85.20;;;;;;5094041;28;19912;-90
2022/03/29 21:35:24;;;;;;;;;;;11.50;85.10;;;;;;5093970;28;19912;-91
2022/03/29 21:37:49;;;;;;;;;;;11.50;84.90;;;;;;5093872;28;19912;-89
2022/03/29 21:40:15;;;;;;;;;;;11.60;84.70;;;;;;5094003;28;19912;-89
2022/03/29 21:42:40;;;;;;;;;;;11.50;84.40;;;;;;5093735;28;19908;-89
2022/03/29 21:45:06;;;;;;;;;;;11.60;84.20;;;;;;5093787;28;19955;-90
2022/03/29 21:47:32;;;;;;;;;;;11.50;84.30;;;;;;5083778;28;19940;-89
2022/03/29 21:49:57;;;;;;;;;;;11.50;84.30;;;;;;5073443;28;19908;-89
2022/03/29 21:52:23;;;;;;;;;;;11.50;84.20;;;;;;5073366;28;19912;-91
2022/03/29 21:54:48;;;;;;;;;;;11.50;84.20;;;;;;5073483;28;19916;-90
2022/03/29 21:57:14;;;;;;;;;;;11.60;84.10;;;;;;5073623;28;19908;-89
2022/03/29 21:59:39;;;;;;;;;;;11.60;84.10;;;;;;5073183;28;20316;-89
2022/03/29 22:02:05;;;;;;;;;;;11.50;84.10;;;;;;5073589;28;19908;-89
2022/03/29 22:04:30;;;;;;;;;;;11.50;84.20;;;;;;5073204;28;19912;-89
2022/03/29 22:06:56;;;;;;;;;;;11.50;84.20;;;;;;5073216;28;19908;-89
2022/03/29 22:09:21;;;;;;;;;;;11.40;84.20;;;;;;5073250;28;20267;-89
2022/03/29 22:11:47;;;;;;;;;;;11.40;84.20;;;;;;5071922;28;19914;-89
2022/03/29 22:14:12;;;;;;;;;;;11.40;84.20;;;;;;5073176;28;19966;-89
2022/03/29 22:16:39;;;;;;;;;;;11.40;84.40;;;;;;5073167;28;19927;-88
2022/03/29 22:19:04;;;;;;;;;;;11.40;84.30;;;;;;5073405;28;19909;-89
2022/03/29 22:21:30;;;;;;;;;;;11.40;84.50;;;;;;5073092;28;19909;-89
2022/03/29 22:23:55;;;;;;;;;;;11.30;84.50;;;;;;5072832;28;19920;-89
2022/03/29 22:26:21;;;;;;;;;;;11.30;84.40;;;;;;5073378;28;20324;-90
2022/03/29 22:28:47;;;;;;;;;;;11.20;84.50;;;;;;5073046;28;19909;-90
2022/03/29 22:31:13;;;;;;;;;;;11.20;84.60;;;;;;5072937;28;19916;-90
2022/03/29 22:33:39;;;;;;;;;;;11.20;84.80;;;;;;5072985;28;20382;-90
2022/03/29 22:36:05;;;;;;;;;;;11.10;84.90;;;;;;5072947;28;19917;-88
2022/03/29 22:38:31;;;;;;;;;;;11.10;85.00;;;;;;5072961;28;19977;-89
2022/03/29 22:43:10;;;;;;;;;;;11.10;84.90;;;;;;5152416;27;19912;-89
2022/03/29 22:45:36;;;;;;;;;;;11.00;85.00;;;;;;5152485;27;19921;-89
2022/03/29 22:48:02;;;;;;;;;;;11.00;85.10;;;;;;5152243;27;20002;-90
2022/03/29 22:50:28;;;;;;;;;;;11.00;85.20;;;;;;5152267;27;20395;-90
2022/03/29 22:52:57;;;;;;;;;;;10.90;85.20;;;;;;5152185;27;19915;-90
2022/03/29 22:55:24;;;;;;;;;;;10.90;85.30;;;;;;5152056;27;19930;-89
2022/03/29 22:57:50;;;;;;;;;;;10.90;85.30;;;;;;5152062;27;19907;-90
2022/03/29 23:00:16;;;;;;;;;;;10.90;85.30;;;;;;5152005;27;19914;-90
2022/03/29 23:02:42;;;;;;;;;;;10.90;85.20;;;;;;5151809;27;19911;-89
2022/03/29 23:05:08;;;;;;;;;;;10.90;85.10;;;;;;5152220;27;20276;-89
2022/03/29 23:07:34;;;;;;;;;;;10.90;85.00;;;;;;5133339;27;19961;-89
2022/03/29 23:09:59;;;;;;;;;;;10.90;85.00;;;;;;5137423;27;19943;-90
2022/03/29 23:12:25;;;;;;;;;;;10.80;85.10;;;;;;5131046;28;19951;-90
2022/03/29 23:14:50;;;;;;;;;;;10.80;85.20;;;;;;5131107;28;19911;-90